createdAt,value
2023-03-30T00:01:10.607Z,10.98
2023-03-30T00:03:39.978Z,9.57
2023-03-30T00:06:09.046Z,12.40
2023-03-30T00:08:38.337Z,11.50
2023-03-30T00:11:10.007Z,10.98
2023-03-30T00:13:38.578Z,7.78
2023-03-30T00:16:08.391Z,8.45
2023-03-30T00:18:36.925Z,9.60
2023-03-30T00:21:05.826Z,8.90
2023-03-30T00:23:34.084Z,10.23
2023-03-30T00:26:02.034Z,10.07
2023-03-30T00:28:32.323Z,8.93
2023-03-30T00:31:00.586Z,8.77
2023-03-30T00:33:43.874Z,8.67
2023-03-30T00:36:14.234Z,8.77
2023-03-30T00:38:42.263Z,10.18
2023-03-30T00:41:10.904Z,12.18
2023-03-30T00:43:59.810Z,13.20
2023-03-30T00:46:28.517Z,10.53
2023-03-30T00:48:58.802Z,9.23
2023-03-30T00:51:29.158Z,12.98
2023-03-30T00:54:02.749Z,12.38
2023-03-30T00:56:31.750Z,7.68
2023-03-30T00:59:01.718Z,8.80
2023-03-30T01:01:31.000Z,9.05
2023-03-30T01:04:02.108Z,12.00
2023-03-30T01:06:32.110Z,7.88
2023-03-30T01:08:59.956Z,12.45
2023-03-30T01:11:28.559Z,11.40
2023-03-30T01:14:01.998Z,9.77
2023-03-30T01:16:38.388Z,7.53
2023-03-30T01:19:25.493Z,8.20
2023-03-30T01:22:30.690Z,10.32
2023-03-30T01:25:27.417Z,12.33
2023-03-30T01:28:13.250Z,5.80
2023-03-30T01:31:12.375Z,10.25
2023-03-30T01:34:04.426Z,6.82
2023-03-30T01:36:59.416Z,13.27
2023-03-30T01:39:41.851Z,9.83
2023-03-30T01:42:19.966Z,12.32
2023-03-30T01:44:55.077Z,9.57
2023-03-30T01:47:26.311Z,13.30
2023-03-30T01:50:00.188Z,12.65
2023-03-30T01:52:32.578Z,14.57
2023-03-30T01:55:06.526Z,10.98
2023-03-30T01:57:38.546Z,16.17
2023-03-30T02:00:14.807Z,13.88
2023-03-30T02:02:45.654Z,10.70
2023-03-30T02:05:17.946Z,14.33
2023-03-30T02:07:50.804Z,12.25
2023-03-30T02:10:22.794Z,11.18
2023-03-30T02:12:52.725Z,10.38
2023-03-30T02:15:21.051Z,15.57
2023-03-30T02:17:49.270Z,12.87
2023-03-30T02:20:18.923Z,12.52
2023-03-30T02:22:47.356Z,13.90
2023-03-30T02:25:15.656Z,16.92
2023-03-30T02:27:44.835Z,15.80
2023-03-30T02:30:16.005Z,16.30
2023-03-30T02:32:46.902Z,14.90
2023-03-30T02:35:39.461Z,10.85
2023-03-30T02:38:26.465Z,16.63
2023-03-30T02:41:05.334Z,12.55
2023-03-30T02:43:41.055Z,16.93
2023-03-30T02:46:26.226Z,14.65
2023-03-30T02:49:03.030Z,11.93
2023-03-30T02:51:42.887Z,13.13
2023-03-30T02:54:23.100Z,15.05
2023-03-30T02:57:21.631Z,14.20
2023-03-30T02:59:56.557Z,19.90
2023-03-30T03:02:32.154Z,16.17
2023-03-30T03:05:14.695Z,12.98
2023-03-30T03:08:00.897Z,15.93
2023-03-30T03:10:28.944Z,15.87
2023-03-30T03:12:56.761Z,15.15
2023-03-30T03:15:26.067Z,18.05
2023-03-30T03:18:14.330Z,15.40
2023-03-30T03:20:43.727Z,14.27
2023-03-30T03:23:12.072Z,15.93
2023-03-30T03:25:50.349Z,15.82
2023-03-30T03:28:20.562Z,14.43
2023-03-30T03:31:00.362Z,11.73
2023-03-30T03:33:28.869Z,15.10
2023-03-30T03:36:04.077Z,15.20
2023-03-30T03:38:34.113Z,14.77
2023-03-30T03:41:02.134Z,16.48
2023-03-30T03:43:31.458Z,12.52
2023-03-30T03:46:00.675Z,12.65
2023-03-30T03:48:28.611Z,17.90
2023-03-30T03:50:58.648Z,17.25
2023-03-30T03:53:29.815Z,11.68
2023-03-30T03:56:03.436Z,9.05
2023-03-30T03:58:32.479Z,13.85
2023-03-30T04:01:02.982Z,13.50
2023-03-30T04:03:31.621Z,12.27
2023-03-30T04:06:01.299Z,11.27
2023-03-30T04:08:30.473Z,14.57
2023-03-30T04:11:07.993Z,12.68
2023-03-30T04:13:54.749Z,13.17
2023-03-30T04:16:42.489Z,17.88
2023-03-30T04:19:25.304Z,12.02
2023-03-30T04:22:07.334Z,11.05
2023-03-30T04:25:01.560Z,11.60
2023-03-30T04:27:51.423Z,16.97
2023-03-30T04:30:46.198Z,17.02
2023-03-30T04:33:38.003Z,12.00
2023-03-30T04:36:35.802Z,17.98
2023-03-30T04:39:35.859Z,13.65
2023-03-30T04:42:15.622Z,13.13
2023-03-30T04:44:51.185Z,15.07
2023-03-30T04:47:37.456Z,14.93
2023-03-30T04:50:27.171Z,13.65
2023-03-30T04:53:26.615Z,13.85
2023-03-30T04:56:29.732Z,22.17
2023-03-30T04:59:23.523Z,23.13
2023-03-30T05:02:27.154Z,14.35
2023-03-30T05:05:15.640Z,15.90
2023-03-30T05:07:57.342Z,16.35
2023-03-30T05:10:44.065Z,20.33
2023-03-30T05:13:47.336Z,20.65
2023-03-30T05:16:27.049Z,18.92
2023-03-30T05:19:10.636Z,19.70
2023-03-30T05:21:53.019Z,16.52
2023-03-30T05:24:41.037Z,20.80
2023-03-30T05:27:32.044Z,20.88
2023-03-30T05:30:17.677Z,17.77
2023-03-30T05:33:05.192Z,20.70
2023-03-30T05:35:52.317Z,20.42
2023-03-30T05:38:36.109Z,25.20
2023-03-30T05:41:13.488Z,20.63
2023-03-30T05:43:59.694Z,18.98
2023-03-30T05:46:37.052Z,22.27
2023-03-30T05:49:20.841Z,16.25
2023-03-30T05:52:03.689Z,20.53
2023-03-30T05:55:02.061Z,21.45
2023-03-30T05:57:46.509Z,15.27
2023-03-30T06:00:36.672Z,26.77
2023-03-30T06:03:16.436Z,22.05
2023-03-30T06:05:44.439Z,19.43
2023-03-30T06:08:13.599Z,19.77
2023-03-30T06:10:43.000Z,33.08
2023-03-30T06:13:14.351Z,23.17
2023-03-30T06:15:49.627Z,26.13
2023-03-30T06:18:21.361Z,20.60
2023-03-30T06:21:02.548Z,20.63
2023-03-30T06:23:31.191Z,24.70
2023-03-30T06:26:03.990Z,23.77
2023-03-30T06:28:38.093Z,25.27
2023-03-30T06:31:10.703Z,22.73
2023-03-30T06:33:41.676Z,23.40
2023-03-30T06:36:12.858Z,21.95
2023-03-30T06:38:43.074Z,37.95
2023-03-30T06:41:12.642Z,29.80
2023-03-30T06:43:45.386Z,28.63
2023-03-30T06:46:17.612Z,27.25
2023-03-30T06:48:52.100Z,28.13
2023-03-30T06:51:39.066Z,31.48
2023-03-30T06:54:08.394Z,22.63
2023-03-30T06:56:40.058Z,31.20
2023-03-30T06:59:15.684Z,29.00
2023-03-30T07:02:03.219Z,33.67
2023-03-30T07:04:50.262Z,30.35
2023-03-30T07:07:41.045Z,24.90
2023-03-30T07:10:11.093Z,27.73
2023-03-30T07:12:40.768Z,32.72
2023-03-30T07:15:11.805Z,22.73
2023-03-30T07:17:41.889Z,25.63
2023-03-30T07:20:14.898Z,30.02
2023-03-30T07:23:21.791Z,29.00
2023-03-30T07:25:53.077Z,29.77
2023-03-30T07:28:30.169Z,25.02
2023-03-30T07:31:07.273Z,26.52
2023-03-30T07:33:38.077Z,36.95
2023-03-30T07:36:08.585Z,33.53
2023-03-30T07:38:38.206Z,41.00
2023-03-30T07:41:10.246Z,34.03
2023-03-30T07:43:40.655Z,24.85
2023-03-30T07:46:11.920Z,26.40
2023-03-30T07:48:43.446Z,31.93
2023-03-30T07:51:13.608Z,24.92
2023-03-30T07:53:52.707Z,31.20
2023-03-30T07:56:27.033Z,31.30
2023-03-30T07:58:57.124Z,28.85
2023-03-30T08:01:32.725Z,22.87
2023-03-30T08:04:14.787Z,25.40
2023-03-30T08:06:43.160Z,25.17
2023-03-30T08:09:11.921Z,26.73
2023-03-30T08:11:41.754Z,31.13
2023-03-30T08:14:09.717Z,23.83
2023-03-30T08:16:39.406Z,25.95
2023-03-30T08:19:08.220Z,20.58
2023-03-30T08:21:36.094Z,26.65
2023-03-30T08:24:04.327Z,27.02
2023-03-30T08:26:32.121Z,30.83
2023-03-30T08:28:59.871Z,30.80
2023-03-30T08:31:28.052Z,33.28
2023-03-30T08:33:57.307Z,28.95
2023-03-30T08:36:25.623Z,27.17
2023-03-30T08:38:56.023Z,26.47
2023-03-30T08:41:49.973Z,27.67
2023-03-30T08:44:27.626Z,32.47
2023-03-30T08:46:55.902Z,29.38
2023-03-30T08:49:26.611Z,25.48
2023-03-30T08:51:56.060Z,24.00
2023-03-30T08:54:25.848Z,28.52
2023-03-30T08:57:04.555Z,26.92
2023-03-30T08:59:44.057Z,30.73
2023-03-30T09:02:17.843Z,30.75
2023-03-30T09:05:01.923Z,33.13
2023-03-30T09:07:32.973Z,26.08
2023-03-30T09:10:02.330Z,22.33
2023-03-30T09:12:39.990Z,32.97
2023-03-30T09:15:14.391Z,31.10
2023-03-30T09:17:46.840Z,28.10
2023-03-30T09:20:22.033Z,25.42
2023-03-30T09:22:51.909Z,25.55
2023-03-30T09:25:21.695Z,25.58
2023-03-30T09:27:59.664Z,26.90
2023-03-30T09:30:40.128Z,20.97
2023-03-30T09:33:17.969Z,19.98
2023-03-30T09:36:00.852Z,21.58
2023-03-30T09:38:28.673Z,27.00
2023-03-30T09:41:07.774Z,22.25
2023-03-30T09:43:41.923Z,27.67
2023-03-30T09:46:10.109Z,23.80
2023-03-30T09:48:42.335Z,29.15
2023-03-30T09:51:20.752Z,28.67
2023-03-30T09:53:51.381Z,19.73
2023-03-30T09:56:22.990Z,25.50
2023-03-30T09:58:50.873Z,23.95
2023-03-30T10:01:21.109Z,27.48
2023-03-30T10:04:08.005Z,26.50
2023-03-30T10:06:40.804Z,25.58
2023-03-30T10:09:13.070Z,30.50
2023-03-30T10:11:44.354Z,28.83
2023-03-30T10:14:29.758Z,25.17
2023-03-30T10:16:59.111Z,28.90
2023-03-30T10:19:27.247Z,25.70
2023-03-30T10:21:58.878Z,26.00
2023-03-30T10:24:29.119Z,26.85
2023-03-30T10:26:59.853Z,25.77
2023-03-30T10:29:30.049Z,23.48
2023-03-30T10:32:01.191Z,27.30
2023-03-30T10:34:39.022Z,27.17
2023-03-30T10:37:13.005Z,24.35
2023-03-30T10:39:43.227Z,26.02
2023-03-30T10:42:17.058Z,30.15
2023-03-30T10:44:53.622Z,27.15
2023-03-30T10:48:02.387Z,28.97
2023-03-30T10:50:46.846Z,24.55
2023-03-30T10:53:35.462Z,24.85
2023-03-30T10:56:19.463Z,29.45
2023-03-30T10:59:29.869Z,24.40
2023-03-30T11:02:34.878Z,32.43
2023-03-30T11:05:12.400Z,27.17
2023-03-30T11:07:44.332Z,33.35
2023-03-30T11:10:18.032Z,25.50
2023-03-30T11:12:49.188Z,31.50
2023-03-30T11:15:22.442Z,28.33
2023-03-30T11:18:00.942Z,30.52
2023-03-30T11:20:32.118Z,27.15
2023-03-30T11:23:07.183Z,27.80
2023-03-30T11:25:42.802Z,30.20
2023-03-30T11:28:19.546Z,22.77
2023-03-30T11:30:47.960Z,28.75
2023-03-30T11:33:27.673Z,27.63
2023-03-30T11:36:01.041Z,30.52
2023-03-30T11:38:34.387Z,28.60
2023-03-30T11:41:11.411Z,24.23
2023-03-30T11:43:39.438Z,26.60
2023-03-30T11:46:14.623Z,30.58
2023-03-30T11:49:07.541Z,24.60
2023-03-30T11:51:46.963Z,32.10
2023-03-30T11:54:31.429Z,23.57
2023-03-30T11:57:07.406Z,22.80
2023-03-30T11:59:45.239Z,33.58
2023-03-30T12:02:25.476Z,30.73
2023-03-30T12:04:58.736Z,23.58
2023-03-30T12:07:36.309Z,29.77
2023-03-30T12:10:12.407Z,37.28
2023-03-30T12:12:42.597Z,33.00
2023-03-30T12:15:37.345Z,33.15
2023-03-30T12:18:12.668Z,25.40
2023-03-30T12:20:47.042Z,25.90
2023-03-30T12:23:28.772Z,22.67
2023-03-30T12:26:18.757Z,23.90
2023-03-30T12:29:15.176Z,22.83
2023-03-30T12:32:08.587Z,25.83
2023-03-30T12:34:45.025Z,31.30
2023-03-30T12:37:15.788Z,33.17
2023-03-30T12:39:49.253Z,27.95
2023-03-30T12:42:27.176Z,23.92
2023-03-30T12:45:22.071Z,23.67
2023-03-30T12:48:09.903Z,27.43
2023-03-30T12:50:46.520Z,33.75
2023-03-30T12:53:37.235Z,36.78
2023-03-30T12:56:08.860Z,27.20
2023-03-30T12:58:53.461Z,35.25
2023-03-30T13:01:36.541Z,38.60
2023-03-30T13:04:09.684Z,32.70
2023-03-30T13:06:41.053Z,29.25
2023-03-30T13:09:35.400Z,32.35
2023-03-30T13:12:30.502Z,29.58
2023-03-30T13:15:01.760Z,36.43
2023-03-30T13:17:50.862Z,33.80
2023-03-30T13:20:30.106Z,29.33
2023-03-30T13:23:06.986Z,33.95
2023-03-30T13:25:40.397Z,30.92
2023-03-30T13:28:36.636Z,36.43
2023-03-30T13:31:19.399Z,30.10
2023-03-30T13:33:54.351Z,37.22
2023-03-30T13:36:29.270Z,38.45
2023-03-30T13:39:07.548Z,26.55
2023-03-30T13:41:46.573Z,36.37
2023-03-30T13:44:26.573Z,34.25
2023-03-30T13:46:59.659Z,42.78
2023-03-30T13:49:40.529Z,34.10
2023-03-30T13:52:13.269Z,32.28
2023-03-30T13:54:42.764Z,34.67
2023-03-30T13:57:13.237Z,25.98
2023-03-30T13:59:44.595Z,21.83
2023-03-30T14:02:16.274Z,28.90
2023-03-30T14:04:45.794Z,31.33
2023-03-30T14:07:17.124Z,33.73
2023-03-30T14:09:45.693Z,34.50
2023-03-30T14:12:15.047Z,32.70
2023-03-30T14:14:47.270Z,29.90
2023-03-30T14:17:20.380Z,25.80
2023-03-30T14:20:03.018Z,29.00
2023-03-30T14:22:32.386Z,28.70
2023-03-30T14:25:02.573Z,30.33
2023-03-30T14:27:36.195Z,28.33
2023-03-30T14:30:09.231Z,31.63
2023-03-30T14:32:37.164Z,26.47
2023-03-30T14:35:08.385Z,35.78
2023-03-30T14:37:37.404Z,30.58
2023-03-30T14:40:12.455Z,32.30
2023-03-30T14:42:40.827Z,27.90
2023-03-30T14:45:09.971Z,27.70
2023-03-30T14:47:38.658Z,36.28
2023-03-30T14:50:09.521Z,23.50
2023-03-30T14:52:41.764Z,32.20
2023-03-30T14:55:18.267Z,30.02
2023-03-30T14:57:47.772Z,31.23
2023-03-30T15:00:20.262Z,30.83
2023-03-30T15:02:51.825Z,29.70
2023-03-30T15:05:23.827Z,27.58
2023-03-30T15:07:53.670Z,41.30
2023-03-30T15:10:23.660Z,29.60
2023-03-30T15:12:54.281Z,30.08
2023-03-30T15:15:27.226Z,41.60
2023-03-30T15:17:56.491Z,27.42
2023-03-30T15:20:27.854Z,33.35
2023-03-30T15:22:56.105Z,29.23
2023-03-30T15:25:30.220Z,37.80
2023-03-30T15:28:02.685Z,30.02
2023-03-30T15:30:33.835Z,28.85
2023-03-30T15:33:07.504Z,30.13
2023-03-30T15:35:38.686Z,32.70
2023-03-30T15:38:16.800Z,36.92
2023-03-30T15:40:46.415Z,28.45
2023-03-30T15:43:16.364Z,28.52
2023-03-30T15:45:49.035Z,30.17
2023-03-30T15:48:20.516Z,23.23
2023-03-30T15:50:55.258Z,35.30
2023-03-30T15:53:34.447Z,29.60
2023-03-30T15:56:04.556Z,29.92
2023-03-30T15:58:34.177Z,29.75
2023-03-30T16:01:04.678Z,38.87
2023-03-30T16:03:38.668Z,28.40
2023-03-30T16:06:12.024Z,34.25
2023-03-30T16:08:43.521Z,36.95
2023-03-30T16:11:12.306Z,31.90
2023-03-30T16:13:42.473Z,24.20
2023-03-30T16:16:11.070Z,28.48
2023-03-30T16:18:41.250Z,30.33
2023-03-30T16:21:12.428Z,35.00
2023-03-30T16:23:40.434Z,37.13
2023-03-30T16:26:09.651Z,31.90
2023-03-30T16:28:37.606Z,30.13
2023-03-30T16:31:12.232Z,27.65
2023-03-30T16:33:40.101Z,30.50
2023-03-30T16:36:08.362Z,32.25
2023-03-30T16:38:37.838Z,31.57
2023-03-30T16:41:06.867Z,31.83
2023-03-30T16:43:34.831Z,28.65
2023-03-30T16:46:02.738Z,32.13
2023-03-30T16:48:30.980Z,22.20
2023-03-30T16:50:58.738Z,29.63
2023-03-30T16:53:26.513Z,30.83
2023-03-30T16:55:55.734Z,31.77
2023-03-30T16:58:23.655Z,33.70
2023-03-30T17:00:53.751Z,27.27
2023-03-30T17:03:21.941Z,34.00
2023-03-30T17:05:49.922Z,23.40
2023-03-30T17:08:22.881Z,31.77
2023-03-30T17:10:52.685Z,25.55
2023-03-30T17:13:22.194Z,28.95
2023-03-30T17:15:50.311Z,32.40
2023-03-30T17:18:20.308Z,30.48
2023-03-30T17:20:49.388Z,28.73
2023-03-30T17:23:17.632Z,34.92
2023-03-30T17:25:48.967Z,30.95
2023-03-30T17:28:22.972Z,35.43
2023-03-30T17:30:52.464Z,27.52
2023-03-30T17:33:20.832Z,29.55
2023-03-30T17:35:51.810Z,34.60
2023-03-30T17:38:19.738Z,31.30
2023-03-30T17:40:48.575Z,30.67
2023-03-30T17:43:16.897Z,35.90
2023-03-30T17:45:46.894Z,24.73
2023-03-30T17:48:17.425Z,32.03
2023-03-30T17:50:47.795Z,38.00
2023-03-30T17:53:16.792Z,26.67
2023-03-30T17:55:46.229Z,31.33
2023-03-30T17:58:18.781Z,27.65
2023-03-30T18:00:49.011Z,28.90
2023-03-30T18:03:18.538Z,31.92
2023-03-30T18:05:47.367Z,31.43
2023-03-30T18:08:17.659Z,34.15
2023-03-30T18:10:47.887Z,32.10
2023-03-30T18:13:16.529Z,39.00
2023-03-30T18:15:46.013Z,32.90
2023-03-30T18:18:22.437Z,34.33
2023-03-30T18:20:51.244Z,38.20
2023-03-30T18:23:19.209Z,37.22
2023-03-30T18:25:47.344Z,30.92
2023-03-30T18:28:17.453Z,35.90
2023-03-30T18:30:45.623Z,30.27
2023-03-30T18:33:16.632Z,30.58
2023-03-30T18:35:46.335Z,33.22
2023-03-30T18:38:15.863Z,30.05
2023-03-30T18:40:45.278Z,33.08
2023-03-30T18:43:13.435Z,35.40
2023-03-30T18:45:42.688Z,30.92
2023-03-30T18:48:15.975Z,27.70
2023-03-30T18:50:45.602Z,29.33
2023-03-30T18:53:15.389Z,33.78
2023-03-30T18:55:45.696Z,33.50
2023-03-30T18:58:15.992Z,29.67
2023-03-30T19:00:43.970Z,31.90
2023-03-30T19:03:13.305Z,32.53
2023-03-30T19:05:43.287Z,30.75
2023-03-30T19:08:12.988Z,30.83
2023-03-30T19:10:43.028Z,35.30
2023-03-30T19:13:14.009Z,30.98
2023-03-30T19:15:42.193Z,29.20
2023-03-30T19:18:10.054Z,35.03
2023-03-30T19:20:41.101Z,38.83
2023-03-30T19:23:12.170Z,31.90
2023-03-30T19:25:41.176Z,33.63
2023-03-30T19:28:10.235Z,43.20
2023-03-30T19:30:39.773Z,38.42
2023-03-30T19:33:11.818Z,45.63
2023-03-30T19:35:43.539Z,34.85
2023-03-30T19:38:13.673Z,38.90
2023-03-30T19:40:42.157Z,36.30
2023-03-30T19:43:10.567Z,28.63
2023-03-30T19:45:38.815Z,32.00
2023-03-30T19:48:07.020Z,34.30
2023-03-30T19:50:35.085Z,34.92
2023-03-30T19:53:02.882Z,32.25
2023-03-30T19:55:32.122Z,32.50
2023-03-30T19:57:59.994Z,33.00
2023-03-30T20:00:27.747Z,26.45
2023-03-30T20:02:56.420Z,27.75
2023-03-30T20:05:25.884Z,31.10
2023-03-30T20:07:54.190Z,48.35
2023-03-30T20:10:24.538Z,42.70
2023-03-30T20:12:54.335Z,40.40
2023-03-30T20:15:23.753Z,41.65
2023-03-30T20:17:58.478Z,38.53
2023-03-30T20:20:26.691Z,35.58
2023-03-30T20:22:56.518Z,30.10
2023-03-30T20:25:25.513Z,39.55
2023-03-30T20:27:54.701Z,35.65
2023-03-30T20:30:22.662Z,36.60
2023-03-30T20:33:06.026Z,31.75
2023-03-30T20:35:37.168Z,40.73
2023-03-30T20:38:05.491Z,32.38
2023-03-30T20:40:33.829Z,40.03
2023-03-30T20:43:03.446Z,36.17
2023-03-30T20:45:32.191Z,31.10
2023-03-30T20:48:05.843Z,35.83
2023-03-30T20:50:34.526Z,34.60
2023-03-30T20:53:02.624Z,36.72
2023-03-30T20:55:30.732Z,33.72
2023-03-30T20:57:58.496Z,38.00
2023-03-30T21:00:27.972Z,31.33
2023-03-30T21:02:55.804Z,36.20
2023-03-30T21:05:23.661Z,40.33
2023-03-30T21:07:53.989Z,39.20
2023-03-30T21:10:22.253Z,36.75
2023-03-30T21:12:50.113Z,34.17
2023-03-30T21:15:18.257Z,41.60
2023-03-30T21:17:47.474Z,31.13
2023-03-30T21:20:15.908Z,38.60
2023-03-30T21:22:43.768Z,39.20
2023-03-30T21:25:12.710Z,38.30
2023-03-30T21:27:40.708Z,34.05
2023-03-30T21:30:10.675Z,39.00
2023-03-30T21:32:38.494Z,31.08
2023-03-30T21:35:08.299Z,36.67
2023-03-30T21:37:36.277Z,38.53
2023-03-30T21:40:05.865Z,33.08
2023-03-30T21:42:34.757Z,34.67
2023-03-30T21:45:02.633Z,39.13
2023-03-30T21:47:30.389Z,29.63
2023-03-30T21:49:58.185Z,27.57
2023-03-30T21:52:27.366Z,42.47
2023-03-30T21:54:55.231Z,40.75
2023-03-30T21:57:23.156Z,34.40
2023-03-30T21:59:51.052Z,29.08
2023-03-30T22:02:18.906Z,36.53
2023-03-30T22:04:46.756Z,37.65
2023-03-30T22:07:34.229Z,27.38
2023-03-30T22:10:02.017Z,36.90
2023-03-30T22:12:31.408Z,38.78
2023-03-30T22:14:59.279Z,35.40
2023-03-30T22:17:35.231Z,38.30
2023-03-30T22:20:03.291Z,38.10
2023-03-30T22:22:32.447Z,40.25
2023-03-30T22:25:01.804Z,32.03
2023-03-30T22:27:29.661Z,32.57
2023-03-30T22:29:57.508Z,36.17
2023-03-30T22:32:25.467Z,39.47
2023-03-30T22:34:53.360Z,34.75
2023-03-30T22:37:21.120Z,32.78
2023-03-30T22:39:49.021Z,35.60
2023-03-30T22:42:18.509Z,34.63
2023-03-30T22:44:46.860Z,34.38
2023-03-30T22:47:14.820Z,34.67
2023-03-30T22:49:42.670Z,29.67
2023-03-30T22:52:10.409Z,29.50
2023-03-30T22:54:38.162Z,23.05
2023-03-30T22:57:06.195Z,34.17
2023-03-30T22:59:36.008Z,25.20
2023-03-30T23:02:03.805Z,33.33
2023-03-30T23:04:31.776Z,26.60
2023-03-30T23:07:00.507Z,29.20
2023-03-30T23:09:29.375Z,34.17
2023-03-30T23:12:00.793Z,30.88
2023-03-30T23:14:28.657Z,34.80
2023-03-30T23:16:58.572Z,27.07
2023-03-30T23:19:29.276Z,22.55
2023-03-30T23:21:57.622Z,31.77
2023-03-30T23:24:25.519Z,36.60
2023-03-30T23:26:53.311Z,24.65
2023-03-30T23:29:21.355Z,32.83
2023-03-30T23:31:51.864Z,33.17
2023-03-30T23:34:22.624Z,24.60
2023-03-30T23:36:51.006Z,26.27
2023-03-30T23:39:18.756Z,22.80
2023-03-30T23:41:46.629Z,23.20
2023-03-30T23:44:14.478Z,27.80
2023-03-30T23:46:42.785Z,26.80
2023-03-30T23:49:10.568Z,24.80
2023-03-30T23:51:39.791Z,25.58
2023-03-30T23:54:07.684Z,23.90
2023-03-30T23:56:36.946Z,26.42
2023-03-30T23:59:05.825Z,29.08
